createdAt,value
2023-01-04T00:01:23.059Z,101148.81
2023-01-04T00:03:51.591Z,101145.44
2023-01-04T00:06:21.390Z,101151.44
2023-01-04T00:08:49.556Z,101148.03
2023-01-04T00:11:19.746Z,101150.59
2023-01-04T00:13:48.841Z,101148.06
2023-01-04T00:16:18.348Z,101141.22
2023-01-04T00:18:46.739Z,101136.16
2023-01-04T00:21:16.342Z,101147.28
2023-01-04T00:23:47.291Z,101141.38
2023-01-04T00:26:16.995Z,101142.19
2023-01-04T00:28:51.769Z,101148.22
2023-01-04T00:31:22.851Z,101142.25
2023-01-04T00:33:51.185Z,101137.16
2023-01-04T00:36:19.309Z,101138.03
2023-01-04T00:39:07.052Z,101127.75
2023-01-04T00:41:58.156Z,101129.53
2023-01-04T00:44:26.013Z,101124.44
2023-01-04T00:46:54.336Z,101115.91
2023-01-04T00:49:22.470Z,101116.84
2023-01-04T00:51:50.664Z,101100.59
2023-01-04T00:54:20.496Z,101110.06
2023-01-04T00:56:48.713Z,101102.34
2023-01-04T00:59:18.149Z,101109.25
2023-01-04T01:01:46.361Z,101117.00
2023-01-04T01:04:16.360Z,101111.91
2023-01-04T01:06:44.676Z,101110.25
2023-01-04T01:09:12.800Z,101106.09
2023-01-04T01:11:42.358Z,101108.66
2023-01-04T01:14:15.351Z,101109.56
2023-01-04T01:16:59.215Z,101108.75
2023-01-04T01:19:28.481Z,101098.63
2023-01-04T01:21:57.665Z,101091.88
2023-01-04T01:24:26.287Z,101093.66
2023-01-04T01:26:55.844Z,101105.72
2023-01-04T01:29:24.113Z,101102.31
2023-01-04T01:31:52.352Z,101094.59
2023-01-04T01:34:20.653Z,101097.19
2023-01-04T01:36:48.845Z,101092.06
2023-01-04T01:39:16.981Z,101082.69
2023-01-04T01:41:45.690Z,101080.09
2023-01-04T01:44:55.672Z,101080.09
2023-01-04T01:47:24.920Z,101086.06
2023-01-04T01:49:54.182Z,101080.09
2023-01-04T01:52:25.116Z,101078.34
2023-01-04T01:54:55.244Z,101070.59
2023-01-04T01:57:25.497Z,101075.72
2023-01-04T01:59:56.981Z,101062.00
2023-01-04T02:02:25.338Z,101068.00
2023-01-04T02:04:55.359Z,101059.47
2023-01-04T02:07:26.109Z,101050.09
2023-01-04T02:09:54.268Z,101039.81
2023-01-04T02:12:22.364Z,101050.09
2023-01-04T02:14:51.517Z,101026.97
2023-01-04T02:17:28.198Z,101028.72
2023-01-04T02:20:36.782Z,101034.66
2023-01-04T02:23:39.526Z,101032.03
2023-01-04T02:26:59.216Z,101013.28
2023-01-04T02:30:09.479Z,101015.84
2023-01-04T02:32:51.544Z,101025.34
2023-01-04T02:35:24.056Z,101026.13
2023-01-04T02:37:56.862Z,101018.44
2023-01-04T02:40:29.454Z,101016.69
2023-01-04T02:43:19.034Z,101009.88
2023-01-04T02:45:50.749Z,101007.31
2023-01-04T02:48:37.986Z,101003.91
2023-01-04T02:51:06.470Z,101021.84
2023-01-04T02:53:36.623Z,101025.22
2023-01-04T02:56:12.784Z,101021.84
2023-01-04T02:58:55.734Z,101023.56
2023-01-04T03:01:46.434Z,101019.31
2023-01-04T03:04:44.140Z,101021.06
2023-01-04T03:07:18.300Z,101010.81
2023-01-04T03:09:48.488Z,101009.97
2023-01-04T03:12:32.597Z,101003.16
2023-01-04T03:15:04.440Z,100999.81
2023-01-04T03:17:35.557Z,100989.50
2023-01-04T03:20:06.426Z,100990.31
2023-01-04T03:22:55.218Z,100973.22
2023-01-04T03:25:44.042Z,100974.16
2023-01-04T03:28:30.907Z,100977.59
2023-01-04T03:31:20.067Z,100971.72
2023-01-04T03:34:06.134Z,100969.16
2023-01-04T03:36:55.738Z,100965.75
2023-01-04T03:40:04.383Z,100982.00
2023-01-04T03:42:57.112Z,100979.44
2023-01-04T03:45:44.640Z,100961.38
2023-01-04T03:48:34.473Z,100967.41
2023-01-04T03:51:09.135Z,100957.91
2023-01-04T03:53:46.861Z,100953.59
2023-01-04T03:56:15.004Z,100952.69
2023-01-04T03:58:43.166Z,100957.81
2023-01-04T04:01:11.401Z,100956.91
2023-01-04T04:03:57.433Z,100950.03
2023-01-04T04:06:43.270Z,100944.03
2023-01-04T04:09:12.726Z,100931.19
2023-01-04T04:11:40.877Z,100943.16
2023-01-04T04:14:09.040Z,100914.94
2023-01-04T04:16:37.218Z,100925.09
2023-01-04T04:19:08.817Z,100929.38
2023-01-04T04:21:37.438Z,100934.41
2023-01-04T04:24:06.527Z,100935.19
2023-01-04T04:26:35.955Z,100938.56
2023-01-04T04:29:04.492Z,100940.25
2023-01-04T04:31:32.758Z,100948.03
2023-01-04T04:34:01.421Z,100936.91
2023-01-04T04:36:29.561Z,100941.22
2023-01-04T04:38:57.762Z,100936.06
2023-01-04T04:41:39.949Z,100925.78
2023-01-04T04:44:11.208Z,100917.25
2023-01-04T04:46:39.587Z,100920.78
2023-01-04T04:49:08.119Z,100911.47
2023-01-04T04:51:36.413Z,100920.03
2023-01-04T04:54:04.909Z,100926.97
2023-01-04T04:56:33.029Z,100918.53
2023-01-04T04:59:01.154Z,100920.38
2023-01-04T05:01:30.844Z,100914.47
2023-01-04T05:03:59.125Z,100913.81
2023-01-04T05:06:27.841Z,100924.16
2023-01-04T05:08:56.045Z,100919.09
2023-01-04T05:11:38.175Z,100921.75
2023-01-04T05:14:06.416Z,100914.13
2023-01-04T05:16:36.562Z,100915.00
2023-01-04T05:19:04.758Z,100915.00
2023-01-04T05:21:32.929Z,100920.09
2023-01-04T05:24:01.050Z,100902.16
2023-01-04T05:26:29.170Z,100902.13
2023-01-04T05:28:57.316Z,100895.25
2023-01-04T05:31:24.792Z,100905.50
2023-01-04T05:33:54.293Z,100902.94
2023-01-04T05:36:22.411Z,100907.16
2023-01-04T05:38:50.611Z,100893.50
2023-01-04T05:41:36.591Z,100893.56
2023-01-04T05:44:04.742Z,100886.72
2023-01-04T05:46:33.016Z,100890.09
2023-01-04T05:49:02.528Z,100896.06
2023-01-04T05:51:30.711Z,100890.09
2023-01-04T05:53:58.970Z,100886.63
2023-01-04T05:56:27.197Z,100875.50
2023-01-04T05:58:55.297Z,100872.06
2023-01-04T06:01:23.470Z,100878.09
2023-01-04T06:03:51.719Z,100866.91
2023-01-04T06:06:21.226Z,100861.72
2023-01-04T06:08:49.353Z,100871.97
2023-01-04T06:11:21.319Z,100866.84
2023-01-04T06:13:52.170Z,100871.19
2023-01-04T06:16:20.332Z,100851.44
2023-01-04T06:18:48.528Z,100863.50
2023-01-04T06:21:16.693Z,100863.44
2023-01-04T06:23:46.700Z,100840.38
2023-01-04T06:26:14.819Z,100845.38
2023-01-04T06:28:43.696Z,100844.56
2023-01-04T06:31:12.396Z,100847.19
2023-01-04T06:33:40.869Z,100842.94
2023-01-04T06:36:20.113Z,100848.03
2023-01-04T06:38:49.934Z,100849.69
2023-01-04T06:41:18.074Z,100852.25
2023-01-04T06:43:46.199Z,100851.41
2023-01-04T06:46:14.321Z,100854.81
2023-01-04T06:48:42.483Z,100849.59
2023-01-04T06:51:10.627Z,100851.25
2023-01-04T06:53:38.837Z,100838.41
2023-01-04T06:56:09.230Z,100842.66
2023-01-04T06:58:37.423Z,100847.75
2023-01-04T07:01:05.986Z,100836.69
2023-01-04T07:03:34.149Z,100825.47
2023-01-04T07:06:06.168Z,100834.84
2023-01-04T07:08:34.586Z,100821.09
2023-01-04T07:11:02.889Z,100824.50
2023-01-04T07:13:32.453Z,100821.84
2023-01-04T07:16:00.719Z,100810.41
2023-01-04T07:18:28.903Z,100813.47
2023-01-04T07:20:57.209Z,100817.78
2023-01-04T07:23:25.441Z,100823.81
2023-01-04T07:25:53.651Z,100829.78
2023-01-04T07:28:35.762Z,100835.00
2023-01-04T07:31:09.048Z,100811.91
2023-01-04T07:33:37.251Z,100829.91
2023-01-04T07:36:06.395Z,100812.00
2023-01-04T07:38:35.563Z,100825.69
2023-01-04T07:41:04.650Z,100814.63
2023-01-04T07:43:33.092Z,100809.44
2023-01-04T07:46:01.707Z,100788.97
2023-01-04T07:48:31.618Z,100778.75
2023-01-04T07:50:59.778Z,100764.91
2023-01-04T07:53:27.991Z,100782.06
2023-01-04T07:55:57.639Z,100764.13
2023-01-04T07:58:25.900Z,100753.84
2023-01-04T08:00:54.084Z,100754.66
2023-01-04T08:03:22.634Z,100767.50
2023-01-04T08:05:52.260Z,100767.47
2023-01-04T08:08:20.468Z,100757.09
2023-01-04T08:10:48.561Z,100760.50
2023-01-04T08:13:16.722Z,100768.19
2023-01-04T08:15:44.924Z,100770.69
2023-01-04T08:18:13.122Z,100778.47
2023-01-04T08:20:41.233Z,100783.56
2023-01-04T08:23:10.972Z,100781.84
2023-01-04T08:25:39.138Z,100800.63
2023-01-04T08:28:07.412Z,100811.81
2023-01-04T08:30:35.567Z,100816.06
2023-01-04T08:33:03.702Z,100808.31
2023-01-04T08:35:31.823Z,100811.72
2023-01-04T08:38:28.405Z,100792.78
2023-01-04T08:40:58.563Z,100789.28
2023-01-04T08:43:32.057Z,100809.84
2023-01-04T08:46:00.301Z,100789.31
2023-01-04T08:48:28.572Z,100782.38
2023-01-04T08:50:59.510Z,100792.63
2023-01-04T08:53:27.775Z,100779.75
2023-01-04T08:55:58.682Z,100783.16
2023-01-04T08:58:27.607Z,100781.38
2023-01-04T09:01:01.189Z,100780.47
2023-01-04T09:03:29.479Z,100771.88
2023-01-04T09:06:04.084Z,100776.94
2023-01-04T09:08:33.377Z,100778.56
2023-01-04T09:11:06.696Z,100781.06
2023-01-04T09:13:35.115Z,100769.84
2023-01-04T09:16:03.406Z,100774.97
2023-01-04T09:18:32.955Z,100771.41
2023-01-04T09:21:05.625Z,100766.28
2023-01-04T09:23:34.895Z,100756.81
2023-01-04T09:26:09.761Z,100756.75
2023-01-04T09:28:38.082Z,100764.38
2023-01-04T09:31:07.540Z,100761.75
2023-01-04T09:34:03.907Z,100763.34
2023-01-04T09:36:25.228Z,100752.13
2023-01-04T09:38:53.549Z,100751.19
2023-01-04T09:41:26.538Z,100752.84
2023-01-04T09:43:55.857Z,100744.22
2023-01-04T09:46:32.053Z,100750.16
2023-01-04T09:49:14.249Z,100754.38
2023-01-04T09:51:44.774Z,100743.00
2023-01-04T09:54:16.922Z,100738.31
2023-01-04T09:56:50.880Z,100745.81
2023-01-04T09:59:19.119Z,100760.34
2023-01-04T10:01:50.264Z,100739.81
2023-01-04T10:04:24.621Z,100732.91
2023-01-04T10:06:53.158Z,100739.75
2023-01-04T10:09:21.510Z,100741.50
2023-01-04T10:12:10.769Z,100732.94
2023-01-04T10:14:56.506Z,100734.69
2023-01-04T10:18:34.103Z,100735.59
2023-01-04T10:23:53.710Z,100735.59
2023-01-04T10:26:25.175Z,100732.91
2023-01-04T10:29:09.937Z,100724.28
2023-01-04T10:31:41.765Z,100720.03
2023-01-04T10:34:21.901Z,100723.47
2023-01-04T10:36:50.400Z,100705.47
2023-01-04T10:39:21.812Z,100713.16
2023-01-04T10:41:54.587Z,100721.69
2023-01-04T10:44:26.932Z,100710.47
2023-01-04T10:47:01.862Z,100704.44
2023-01-04T10:49:34.304Z,100707.84
2023-01-04T10:52:04.111Z,100681.19
2023-01-04T10:54:35.007Z,100701.78
2023-01-04T10:57:07.269Z,100700.81
2023-01-04T10:59:39.745Z,100697.41
2023-01-04T11:02:14.449Z,100693.91
2023-01-04T11:04:47.921Z,100689.56
2023-01-04T11:07:19.647Z,100693.00
2023-01-04T11:09:50.509Z,100677.50
2023-01-04T11:12:19.120Z,100666.31
2023-01-04T11:14:49.238Z,100677.38
2023-01-04T11:17:17.414Z,100675.59
2023-01-04T11:19:45.564Z,100670.38
2023-01-04T11:22:17.934Z,100666.09
2023-01-04T11:25:00.637Z,100668.56
2023-01-04T11:27:40.151Z,100656.44
2023-01-04T11:30:17.325Z,100670.09
2023-01-04T11:32:51.036Z,100651.22
2023-01-04T11:35:42.557Z,100658.78
2023-01-04T11:38:14.006Z,100642.50
2023-01-04T11:40:42.349Z,100645.91
2023-01-04T11:43:18.391Z,100635.44
2023-01-04T11:46:00.066Z,100627.63
2023-01-04T11:48:42.052Z,100628.47
2023-01-04T11:51:27.555Z,100617.28
2023-01-04T11:53:58.849Z,100616.31
2023-01-04T11:56:27.567Z,100616.25
2023-01-04T11:59:20.683Z,100617.88
2023-01-04T12:02:19.296Z,100612.66
2023-01-04T12:05:00.388Z,100609.97
2023-01-04T12:07:33.559Z,100607.31
2023-01-04T12:10:02.782Z,100605.47
2023-01-04T12:12:32.821Z,100610.50
2023-01-04T12:15:03.899Z,100594.94
2023-01-04T12:17:43.129Z,100575.03
2023-01-04T12:20:19.540Z,100549.22
2023-01-04T12:22:48.276Z,100552.34
2023-01-04T12:25:29.789Z,100559.88
2023-01-04T12:27:57.932Z,100561.38
2023-01-04T12:30:46.433Z,100558.66
2023-01-04T12:33:41.201Z,100554.31
2023-01-04T12:36:10.244Z,100537.97
2023-01-04T12:39:28.899Z,100537.97
2023-01-04T12:42:27.167Z,100533.53
2023-01-04T12:45:19.314Z,100533.38
2023-01-04T12:48:06.225Z,100522.13
2023-01-04T12:51:33.018Z,100533.31
2023-01-04T12:54:03.597Z,100525.56
2023-01-04T12:57:12.298Z,100528.81
2023-01-04T12:59:41.200Z,100530.50
2023-01-04T13:02:22.334Z,100534.78
2023-01-04T13:04:59.156Z,100531.28
2023-01-04T13:07:44.590Z,100518.47
2023-01-04T13:10:30.172Z,100536.41
2023-01-04T13:13:22.097Z,100529.56
2023-01-04T13:16:00.037Z,100532.16
2023-01-04T13:18:35.795Z,100519.28
2023-01-04T13:21:09.339Z,100527.81
2023-01-04T13:23:39.357Z,100522.53
2023-01-04T13:26:30.852Z,100522.53
2023-01-04T13:29:23.803Z,100507.97
2023-01-04T13:31:55.071Z,100514.88
2023-01-04T13:34:26.110Z,100496.75
2023-01-04T13:37:03.684Z,100492.34
2023-01-04T13:39:33.182Z,100488.91
2023-01-04T13:42:01.342Z,100491.59
2023-01-04T13:47:50.071Z,100480.56
2023-01-04T13:50:32.472Z,100488.31
2023-01-04T13:53:07.027Z,100486.75
2023-01-04T13:55:38.480Z,100472.34
2023-01-04T13:58:07.821Z,100485.41
2023-01-04T14:00:42.425Z,100477.69
2023-01-04T14:03:30.017Z,100482.81
2023-01-04T14:06:12.641Z,100468.34
2023-01-04T14:08:42.204Z,100480.31
2023-01-04T14:11:35.345Z,100469.03
2023-01-04T14:14:04.090Z,100468.22
2023-01-04T14:16:32.224Z,100466.44
2023-01-04T14:19:00.382Z,100457.78
2023-01-04T14:21:36.080Z,100452.63
2023-01-04T14:24:04.460Z,100453.56
2023-01-04T14:26:35.926Z,100458.72
2023-01-04T14:29:22.788Z,100449.31
2023-01-04T14:31:51.517Z,100446.69
2023-01-04T14:34:19.601Z,100456.94
2023-01-04T14:36:47.781Z,100450.84
2023-01-04T14:39:26.811Z,100459.47
2023-01-04T14:41:57.639Z,100457.69
2023-01-04T14:44:31.843Z,100463.69
2023-01-04T14:47:01.378Z,100461.94
2023-01-04T14:49:31.341Z,100459.28
2023-01-04T14:52:00.165Z,100460.09
2023-01-04T14:54:29.511Z,100456.63
2023-01-04T14:56:59.617Z,100446.22
2023-01-04T14:59:28.644Z,100440.88
2023-01-04T15:01:57.720Z,100438.31
2023-01-04T15:04:26.048Z,100429.56
2023-01-04T15:06:55.719Z,100428.69
2023-01-04T15:09:24.000Z,100423.50
2023-01-04T15:11:52.102Z,100422.63
2023-01-04T15:14:21.605Z,100421.75
2023-01-04T15:16:49.810Z,100421.75
2023-01-04T15:19:18.021Z,100420.03
2023-01-04T15:21:46.188Z,100419.97
2023-01-04T15:24:14.341Z,100419.00
2023-01-04T15:26:43.412Z,100419.00
2023-01-04T15:29:11.545Z,100423.31
2023-01-04T15:31:43.492Z,100427.63
2023-01-04T15:34:11.751Z,100425.88
2023-01-04T15:36:41.027Z,100422.38
2023-01-04T15:39:11.669Z,100427.44
2023-01-04T15:41:57.623Z,100426.56
2023-01-04T15:44:26.253Z,100424.88
2023-01-04T15:46:55.940Z,100432.59
2023-01-04T15:49:24.417Z,100426.47
2023-01-04T15:51:52.578Z,100423.81
2023-01-04T15:54:21.817Z,100420.38
2023-01-04T15:56:50.192Z,100426.38
2023-01-04T15:59:18.438Z,100417.75
2023-01-04T16:01:46.845Z,100410.88
2023-01-04T16:04:16.459Z,100417.75
2023-01-04T16:06:44.615Z,100413.41
2023-01-04T16:09:12.775Z,100408.34
2023-01-04T16:12:01.981Z,100424.44
2023-01-04T16:14:30.177Z,100423.72
2023-01-04T16:16:58.231Z,100422.03
2023-01-04T16:19:27.774Z,100421.16
2023-01-04T16:21:56.061Z,100412.50
2023-01-04T16:25:00.197Z,100410.72
2023-01-04T16:27:12.272Z,100405.38
2023-01-04T16:29:40.456Z,100404.53
2023-01-04T16:32:08.542Z,100407.06
2023-01-04T16:34:38.307Z,100392.47
2023-01-04T16:37:06.539Z,100393.25
2023-01-04T16:40:05.355Z,100399.34
2023-01-04T16:42:22.715Z,100404.41
2023-01-04T16:44:50.874Z,100409.56
2023-01-04T16:47:19.054Z,100404.53
2023-01-04T16:49:52.047Z,100408.91
2023-01-04T16:52:20.130Z,100411.53
2023-01-04T16:54:48.313Z,100398.59
2023-01-04T16:57:16.582Z,100402.88
2023-01-04T16:59:44.644Z,100399.50
2023-01-04T17:02:14.126Z,100389.19
2023-01-04T17:04:42.372Z,100384.84
2023-01-04T17:07:11.890Z,100396.06
2023-01-04T17:09:41.243Z,100397.81
2023-01-04T17:17:45.669Z,100392.41
2023-01-04T17:20:14.039Z,100382.84
2023-01-04T17:22:43.573Z,100392.28
2023-01-04T17:25:11.885Z,100376.81
2023-01-04T17:27:40.338Z,100385.47
2023-01-04T17:30:10.470Z,100383.84
2023-01-04T17:32:39.343Z,100384.72
2023-01-04T17:35:08.144Z,100377.88
2023-01-04T17:37:36.306Z,100384.00
2023-01-04T17:40:07.414Z,100396.97
2023-01-04T17:42:35.729Z,100397.00
2023-01-04T17:45:04.028Z,100393.66
2023-01-04T17:47:32.255Z,100391.19
2023-01-04T17:50:00.401Z,100389.63
2023-01-04T17:52:31.307Z,100382.88
2023-01-04T17:55:00.735Z,100387.25
2023-01-04T17:57:32.136Z,100386.41
2023-01-04T18:00:00.355Z,100377.06
2023-01-04T18:02:28.764Z,100374.03
2023-01-04T18:04:56.969Z,100365.03
2023-01-04T18:07:25.745Z,100373.56
2023-01-04T18:09:53.949Z,100362.50
2023-01-04T18:12:22.096Z,100372.06
2023-01-04T18:14:51.785Z,100373.00
2023-01-04T18:17:19.934Z,100361.06
2023-01-04T18:19:48.102Z,100377.72
2023-01-04T18:22:16.522Z,100374.34
2023-01-04T18:24:44.653Z,100372.69
2023-01-04T18:27:23.037Z,100371.75
2023-01-04T18:29:54.084Z,100380.41
2023-01-04T18:32:22.664Z,100373.59
2023-01-04T18:34:50.813Z,100369.13
2023-01-04T18:37:19.483Z,100388.94
2023-01-04T18:39:48.063Z,100383.00
2023-01-04T18:42:16.242Z,100371.00
2023-01-04T18:44:48.442Z,100367.66
2023-01-04T18:47:19.785Z,100363.41
2023-01-04T18:49:48.314Z,100362.47
2023-01-04T18:52:16.648Z,100342.06
2023-01-04T18:54:45.079Z,100360.94
2023-01-04T18:57:13.539Z,100358.38
2023-01-04T18:59:41.825Z,100357.53
2023-01-04T19:02:14.100Z,100374.69
2023-01-04T19:04:43.709Z,100369.66
2023-01-04T19:07:11.844Z,100371.31
2023-01-04T19:09:42.363Z,100371.44
2023-01-04T19:12:10.581Z,100364.63
2023-01-04T19:14:38.736Z,100368.06
2023-01-04T19:17:08.169Z,100356.97
2023-01-04T19:19:36.553Z,100352.72
2023-01-04T19:22:06.003Z,100369.88
2023-01-04T19:24:34.269Z,100354.44
2023-01-04T19:27:05.099Z,100350.06
2023-01-04T19:29:33.943Z,100353.56
2023-01-04T19:32:02.157Z,100348.34
2023-01-04T19:34:30.437Z,100342.28
2023-01-04T19:36:58.599Z,100338.03
2023-01-04T19:39:28.122Z,100347.44
2023-01-04T19:41:56.405Z,100344.03
2023-01-04T19:44:24.560Z,100334.53
2023-01-04T19:46:52.656Z,100332.75
2023-01-04T19:49:20.831Z,100341.28
2023-01-04T19:51:51.528Z,100343.84
2023-01-04T19:54:25.184Z,100354.00
2023-01-04T19:56:55.509Z,100348.06
2023-01-04T19:59:23.828Z,100351.47
2023-01-04T20:01:52.096Z,100348.09
2023-01-04T20:04:20.633Z,100353.25
2023-01-04T20:06:48.779Z,100364.38
2023-01-04T20:09:18.379Z,100354.00
2023-01-04T20:11:46.783Z,100357.41
2023-01-04T20:14:16.323Z,100359.13
2023-01-04T20:16:44.618Z,100347.00
2023-01-04T20:19:12.802Z,100353.03
2023-01-04T20:21:40.980Z,100348.66
2023-01-04T20:24:09.595Z,100345.97
2023-01-04T20:26:37.760Z,100343.38
2023-01-04T20:29:05.936Z,100348.53
2023-01-04T20:31:35.613Z,100356.19
2023-01-04T20:34:03.766Z,100370.75
2023-01-04T20:36:32.018Z,100376.78
2023-01-04T20:39:00.409Z,100371.53
2023-01-04T20:41:31.679Z,100380.88
2023-01-04T20:43:59.126Z,100389.41
2023-01-04T20:46:30.248Z,100366.13
2023-01-04T20:48:59.960Z,100359.22
2023-01-04T20:51:29.641Z,100356.50
2023-01-04T20:53:59.626Z,100360.84
2023-01-04T20:56:29.464Z,100355.66
2023-01-04T20:58:57.842Z,100371.16
2023-01-04T21:01:26.310Z,100358.19
2023-01-04T21:03:54.629Z,100384.00
2023-01-04T21:06:24.812Z,100366.81
2023-01-04T21:08:54.806Z,100363.38
2023-01-04T21:11:23.343Z,100355.63
2023-01-04T21:13:51.812Z,100355.63
2023-01-04T21:16:19.951Z,100363.38
2023-01-04T21:18:48.193Z,100361.56
2023-01-04T21:21:17.794Z,100338.25
2023-01-04T21:23:50.555Z,100344.16
2023-01-04T21:26:22.805Z,100330.34
2023-01-04T21:28:50.937Z,100338.88
2023-01-04T21:31:21.263Z,100337.06
2023-01-04T21:33:49.506Z,100330.00
2023-01-04T21:36:19.160Z,100341.88
2023-01-04T21:38:50.538Z,100338.28
2023-01-04T21:41:18.961Z,100338.19
2023-01-04T21:43:47.127Z,100332.75
2023-01-04T21:46:16.044Z,100338.69
2023-01-04T21:48:44.688Z,100335.88
2023-01-04T21:51:13.291Z,100330.66
2023-01-04T21:53:41.717Z,100319.38
2023-01-04T21:56:13.123Z,100323.50
2023-01-04T21:58:41.379Z,100320.78
2023-01-04T22:01:10.767Z,100321.56
2023-01-04T22:03:39.130Z,100317.97
2023-01-04T22:06:07.996Z,100315.25
2023-01-04T22:08:36.227Z,100316.03
2023-01-04T22:11:04.768Z,100306.47
2023-01-04T22:13:34.279Z,100303.75
2023-01-04T22:16:06.824Z,100307.13
2023-01-04T22:18:35.045Z,100297.69
2023-01-04T22:21:04.387Z,100287.31
2023-01-04T22:23:32.743Z,100273.41
2023-01-04T22:26:00.932Z,100282.72
2023-01-04T22:28:34.648Z,100272.25
2023-01-04T22:31:07.263Z,100278.22
2023-01-04T22:33:35.868Z,100279.00
2023-01-04T22:36:06.125Z,100274.66
2023-01-04T22:38:35.710Z,100272.91
2023-01-04T22:41:07.834Z,100260.78
2023-01-04T22:43:36.375Z,100263.34
2023-01-04T22:46:07.862Z,100262.53
2023-01-04T22:48:36.179Z,100259.88
2023-01-04T22:51:07.921Z,100262.38
2023-01-04T22:53:36.379Z,100270.22
2023-01-04T22:56:23.535Z,100266.72
2023-01-04T22:58:54.753Z,100251.22
2023-01-04T23:01:25.327Z,100260.72
2023-01-04T23:03:54.514Z,100266.72
2023-01-04T23:06:22.948Z,100259.88
2023-01-04T23:08:56.065Z,100265.06
2023-01-04T23:11:24.433Z,100259.88
2023-01-04T23:13:52.619Z,100259.78
2023-01-04T23:16:23.799Z,100269.25
2023-01-04T23:18:57.567Z,100268.38
2023-01-04T23:21:25.653Z,100263.34
2023-01-04T23:23:53.779Z,100261.69
2023-01-04T23:26:23.752Z,100254.88
2023-01-04T23:28:52.010Z,100260.13
2023-01-04T23:31:21.962Z,100250.69
2023-01-04T23:33:53.909Z,100250.69
2023-01-04T23:36:24.893Z,100243.72
2023-01-04T23:38:54.421Z,100254.81
2023-01-04T23:41:42.726Z,100251.34
2023-01-04T23:44:13.184Z,100252.22
2023-01-04T23:46:41.353Z,100244.47
2023-01-04T23:49:09.541Z,100233.09
2023-01-04T23:51:39.045Z,100236.47
2023-01-04T23:54:08.345Z,100240.66
2023-01-04T23:56:36.693Z,100237.25
2023-01-04T23:59:04.859Z,100232.06
